Time;durP1;ratioP1;P1;durP2;ratioP2;P2;SDS_P1;SDS_P2;PMS_P1;PMS_P2;Temp;Humidity;BMP_temperature;BMP_pressure;BME280_temperature;BME280_humidity;BME280_pressure;Samples;Min_cycle;Max_cycle;Signal;HPM_P1;HPM_P2
2023/04/09 00:02:11;;;;;;;26.38;20.15;;;7.20;40.20;;;;;;5031688;28;20209;-51
2023/04/09 00:04:37;;;;;;;23.90;19.37;;;7.20;40.00;;;;;;5031923;28;20174;-51
2023/04/09 00:07:03;;;;;;;25.93;18.93;;;7.10;40.00;;;;;;5031839;28;20719;-51
2023/04/09 00:09:29;;;;;;;25.10;18.33;;;7.10;40.10;;;;;;5031785;28;20249;-51
2023/04/09 00:11:55;;;;;;;24.27;18.33;;;7.00;40.00;;;;;;5034485;28;20228;-51
2023/04/09 00:14:21;;;;;;;26.52;18.88;;;7.00;40.00;;;;;;5035624;28;20260;-51
2023/04/09 00:16:47;;;;;;;26.80;17.83;;;7.00;40.00;;;;;;5035557;28;20725;-52
2023/04/09 00:19:13;;;;;;;24.90;17.90;;;6.90;40.00;;;;;;5035761;28;20176;-51
2023/04/09 00:21:39;;;;;;;27.27;18.40;;;6.90;40.00;;;;;;5035661;28;20194;-51
2023/04/09 00:24:05;;;;;;;24.30;16.90;;;6.90;40.00;;;;;;5035347;28;20170;-51
2023/04/09 00:26:30;;;;;;;26.33;19.30;;;6.90;40.00;;;;;;5035414;28;20420;-51
2023/04/09 00:28:56;;;;;;;25.13;18.17;;;6.80;40.10;;;;;;5035389;28;20431;-51
2023/04/09 00:31:22;;;;;;;27.23;20.10;;;6.80;40.00;;;;;;5035214;28;20519;-51
2023/04/09 00:33:48;;;;;;;26.80;17.70;;;6.80;40.30;;;;;;5035394;28;20197;-51
2023/04/09 00:36:14;;;;;;;25.10;17.83;;;6.70;40.30;;;;;;5035210;28;20460;-52
2023/04/09 00:38:40;;;;;;;30.25;19.98;;;6.70;40.40;;;;;;5035465;28;20413;-51
2023/04/09 00:41:06;;;;;;;23.27;17.90;;;6.70;40.20;;;;;;5035092;28;20236;-52
2023/04/09 00:43:31;;;;;;;22.20;17.33;;;6.70;40.20;;;;;;5035166;28;20405;-51
2023/04/09 00:45:59;;;;;;;24.00;17.63;;;6.70;40.20;;;;;;5035041;28;20674;-51
2023/04/09 00:48:25;;;;;;;24.48;18.63;;;6.70;40.20;;;;;;5035131;28;20163;-51
2023/04/09 00:50:51;;;;;;;24.92;18.58;;;6.60;40.20;;;;;;5041300;22;20229;-51
2023/04/09 00:53:17;;;;;;;27.03;18.17;;;6.60;40.30;;;;;;5034268;28;20162;-51
2023/04/09 00:55:44;;;;;;;22.92;17.35;;;6.60;40.20;;;;;;5034846;28;20404;-51
2023/04/09 00:58:11;;;;;;;26.70;17.40;;;6.60;40.20;;;;;;5034792;28;20182;-51
2023/04/09 01:00:36;;;;;;;29.25;19.17;;;6.50;40.50;;;;;;5034690;28;20209;-51
2023/04/09 01:03:05;;;;;;;25.63;17.60;;;6.50;40.60;;;;;;5034438;28;20661;-50
2023/04/09 01:05:42;;;;;;;22.65;17.48;;;6.50;40.90;;;;;;5034784;28;20220;-51
2023/04/09 01:08:40;;;;;;;25.58;17.92;;;6.60;40.90;;;;;;5034751;28;20158;-51
2023/04/09 01:11:32;;;;;;;29.42;20.20;;;6.60;41.00;;;;;;5029579;28;20201;-51
2023/04/09 01:14:10;;;;;;;26.90;17.90;;;6.60;41.00;;;;;;5034387;28;20170;-51
2023/04/09 01:16:41;;;;;;;24.17;17.52;;;6.60;41.00;;;;;;5034647;28;20150;-51
2023/04/09 01:19:21;;;;;;;23.60;17.35;;;6.60;41.10;;;;;;5034549;28;20162;-50
2023/04/09 01:21:48;;;;;;;29.17;17.92;;;6.60;41.20;;;;;;5034190;28;20229;-51
2023/04/09 01:24:16;;;;;;;25.83;18.83;;;6.60;41.40;;;;;;5033964;28;20174;-51
2023/04/09 01:27:07;;;;;;;27.58;19.95;;;6.60;41.50;;;;;;5034411;28;20223;-51
2023/04/09 01:29:45;;;;;;;26.15;18.60;;;6.60;41.60;;;;;;5034254;28;20708;-51
2023/04/09 01:32:12;;;;;;;25.55;17.65;;;6.60;41.50;;;;;;5033924;28;20193;-50
2023/04/09 01:34:40;;;;;;;30.88;18.95;;;6.70;41.50;;;;;;5034198;28;20185;-51
2023/04/09 01:37:07;;;;;;;31.27;20.80;;;6.70;41.30;;;;;;5034087;28;20238;-50
2023/04/09 01:39:33;;;;;;;30.33;21.17;;;6.70;41.20;;;;;;5034338;28;20178;-51
2023/04/09 01:42:00;;;;;;;28.48;19.20;;;6.70;41.20;;;;;;5033698;28;20277;-51
2023/04/09 01:44:28;;;;;;;27.85;19.73;;;6.60;41.50;;;;;;5033804;28;20178;-51
2023/04/09 01:46:56;;;;;;;30.35;22.45;;;6.60;41.60;;;;;;5033955;28;20173;-50
2023/04/09 01:49:22;;;;;;;28.63;20.90;;;6.50;41.80;;;;;;5033908;28;20181;-50
2023/04/09 01:51:49;;;;;;;31.50;21.70;;;6.60;41.80;;;;;;5033476;28;20210;-51
2023/04/09 01:54:16;;;;;;;28.75;19.40;;;6.60;41.80;;;;;;5033785;28;21052;-50
2023/04/09 01:56:46;;;;;;;30.95;20.65;;;6.60;41.70;;;;;;5033770;28;20193;-51
2023/04/09 01:59:13;;;;;;;29.83;19.73;;;6.60;41.80;;;;;;5033855;28;20245;-50
2023/04/09 02:01:45;;;;;;;31.08;19.83;;;6.60;41.80;;;;;;5033516;28;20569;-50
2023/04/09 02:04:23;;;;;;;30.70;19.50;;;6.60;41.60;;;;;;5033729;28;20747;-50
2023/04/09 02:06:56;;;;;;;26.85;21.05;;;6.60;41.70;;;;;;5033573;28;20177;-51
2023/04/09 02:09:23;;;;;;;28.48;21.13;;;6.50;42.00;;;;;;5033412;28;20515;-51
2023/04/09 02:11:50;;;;;;;30.42;20.33;;;6.50;41.70;;;;;;5033228;28;20661;-50
2023/04/09 02:14:19;;;;;;;26.60;19.08;;;6.50;41.80;;;;;;5033447;28;20257;-50
2023/04/09 02:16:46;;;;;;;26.45;18.90;;;6.50;41.80;;;;;;5033451;28;20527;-50
2023/04/09 02:19:12;;;;;;;23.38;19.38;;;6.50;41.80;;;;;;5033385;28;20170;-51
2023/04/09 02:21:37;;;;;;;29.03;19.90;;;6.50;41.60;;;;;;5033183;28;20208;-51
2023/04/09 02:24:03;;;;;;;23.33;18.50;;;6.60;41.50;;;;;;5033007;28;20174;-51
2023/04/09 02:26:29;;;;;;;31.23;19.77;;;6.50;41.40;;;;;;5033187;28;20499;-51
2023/04/09 02:28:55;;;;;;;28.80;18.87;;;6.50;41.40;;;;;;5033071;28;20408;-51
2023/04/09 02:31:20;;;;;;;28.63;20.80;;;6.50;41.40;;;;;;5033284;28;20452;-50
2023/04/09 02:33:46;;;;;;;29.33;20.10;;;6.50;41.50;;;;;;5032452;28;20181;-51
2023/04/09 02:36:12;;;;;;;24.83;20.37;;;6.40;41.40;;;;;;5032970;28;20204;-51
2023/04/09 02:38:41;;;;;;;27.55;18.90;;;6.40;41.50;;;;;;5015161;28;20261;-50
2023/04/09 02:41:08;;;;;;;28.95;20.02;;;6.40;41.50;;;;;;5033035;28;20190;-50
2023/04/09 02:43:34;;;;;;;32.30;18.35;;;6.40;41.50;;;;;;5032703;28;20212;-50
2023/04/09 02:45:59;;;;;;;32.55;19.95;;;6.30;41.60;;;;;;5032925;28;20174;-50
2023/04/09 02:48:25;;;;;;;25.50;18.30;;;6.40;41.50;;;;;;5032830;28;20236;-50
2023/04/09 02:50:51;;;;;;;30.57;19.63;;;6.30;41.70;;;;;;5032550;28;20267;-50
2023/04/09 02:53:16;;;;;;;36.70;21.87;;;6.20;41.70;;;;;;5032355;28;20178;-50
2023/04/09 02:55:42;;;;;;;27.83;19.40;;;6.20;41.80;;;;;;5032713;28;20166;-50
2023/04/09 02:58:08;;;;;;;27.90;19.27;;;6.20;41.90;;;;;;5032658;28;20174;-50
2023/04/09 03:00:34;;;;;;;23.43;17.63;;;6.20;41.80;;;;;;5032515;28;20577;-50
2023/04/09 03:02:59;;;;;;;24.40;18.90;;;6.20;41.50;;;;;;5032259;28;20277;-50
2023/04/09 03:05:25;;;;;;;29.40;20.47;;;6.20;41.50;;;;;;5032542;28;20401;-50
2023/04/09 03:07:51;;;;;;;27.23;18.80;;;6.20;41.50;;;;;;5032467;28;20162;-50
2023/04/09 03:10:17;;;;;;;28.20;19.77;;;6.10;41.60;;;;;;5032576;28;20696;-51
2023/04/09 03:12:43;;;;;;;28.70;18.57;;;6.10;41.70;;;;;;5032233;28;20249;-50
2023/04/09 03:15:09;;;;;;;30.27;20.13;;;6.10;41.80;;;;;;5032485;28;20629;-50
2023/04/09 03:17:35;;;;;;;28.17;19.55;;;6.10;41.80;;;;;;5032312;28;20204;-50
2023/04/09 03:20:01;;;;;;;27.90;21.10;;;6.10;41.90;;;;;;5032320;28;20568;-51
2023/04/09 03:22:27;;;;;;;30.37;20.73;;;6.10;41.90;;;;;;5031800;28;20518;-51
2023/04/09 03:24:52;;;;;;;32.43;20.97;;;6.20;41.90;;;;;;5032307;28;20462;-50
2023/04/09 03:27:18;;;;;;;40.60;20.90;;;6.20;41.80;;;;;;5032288;28;20208;-51
2023/04/09 03:29:44;;;;;;;30.70;19.07;;;6.20;41.80;;;;;;5032186;28;20589;-51
2023/04/09 03:32:10;;;;;;;25.57;19.43;;;6.20;41.90;;;;;;5031865;28;20186;-51
2023/04/09 03:34:36;;;;;;;27.17;17.87;;;6.30;41.90;;;;;;5032167;28;20404;-50
2023/04/09 03:37:01;;;;;;;28.40;19.80;;;6.30;41.70;;;;;;5032137;28;20808;-50
2023/04/09 03:39:29;;;;;;;28.73;20.13;;;6.30;41.50;;;;;;5032081;28;20174;-51
2023/04/09 03:41:57;;;;;;;27.13;18.98;;;6.80;41.20;;;;;;5031886;28;20205;-51
2023/04/09 03:44:23;;;;;;;26.95;19.00;;;6.20;41.30;;;;;;5031922;28;20236;-51
2023/04/09 03:46:49;;;;;;;30.40;20.50;;;6.20;41.80;;;;;;5037196;28;20170;-51
2023/04/09 03:49:15;;;;;;;28.63;18.60;;;6.20;42.10;;;;;;5038531;28;20182;-51
2023/04/09 03:51:40;;;;;;;26.23;19.53;;;6.20;42.40;;;;;;5038312;28;20451;-51
2023/04/09 03:54:06;;;;;;;28.37;21.00;;;6.20;42.40;;;;;;5038408;28;20230;-51
2023/04/09 03:56:32;;;;;;;31.97;20.50;;;6.30;42.40;;;;;;5038441;28;20180;-51
2023/04/09 03:58:57;;;;;;;28.20;20.90;;;6.40;42.30;;;;;;5038523;28;20185;-50
2023/04/09 04:01:23;;;;;;;26.83;18.57;;;6.40;42.30;;;;;;5038355;28;20209;-51
2023/04/09 04:03:49;;;;;;;32.70;21.57;;;6.40;42.30;;;;;;5038777;28;20178;-50
2023/04/09 04:06:15;;;;;;;28.33;18.97;;;6.50;42.30;;;;;;5038291;28;20174;-51
2023/04/09 04:08:40;;;;;;;24.97;18.90;;;6.50;42.30;;;;;;5020683;28;20185;-51
2023/04/09 04:11:06;;;;;;;27.80;20.70;;;6.60;42.30;;;;;;5038287;28;20276;-51
2023/04/09 04:13:32;;;;;;;27.07;19.97;;;6.60;42.40;;;;;;5038137;28;20511;-50
2023/04/09 04:15:57;;;;;;;29.23;20.17;;;6.60;42.40;;;;;;5038306;28;20178;-50
2023/04/09 04:18:23;;;;;;;31.03;19.70;;;6.60;43.10;;;;;;5038663;28;20180;-50
2023/04/09 04:20:49;;;;;;;27.40;18.67;;;6.60;42.40;;;;;;5038151;28;20190;-51
2023/04/09 04:23:15;;;;;;;31.87;19.57;;;6.70;42.60;;;;;;5037954;28;20208;-50
2023/04/09 04:25:41;;;;;;;27.83;19.03;;;6.70;42.70;;;;;;5038374;28;20192;-50
2023/04/09 04:28:07;;;;;;;26.13;19.50;;;6.70;42.70;;;;;;5038381;28;20174;-51
2023/04/09 04:30:33;;;;;;;28.52;19.20;;;6.70;42.70;;;;;;5038073;28;20192;-50
2023/04/09 04:32:59;;;;;;;27.70;21.37;;;6.80;42.60;;;;;;5037965;28;20257;-50
2023/04/09 04:35:24;;;;;;;26.73;18.90;;;6.80;42.80;;;;;;5038027;28;20907;-50
2023/04/09 04:37:50;;;;;;;28.73;19.80;;;6.80;42.60;;;;;;5038125;28;20818;-50
2023/04/09 04:40:16;;;;;;;25.80;18.60;;;6.80;42.60;;;;;;5020426;28;20649;-50
2023/04/09 04:42:42;;;;;;;27.95;21.30;;;6.80;42.80;;;;;;5037806;28;20535;-50
2023/04/09 04:45:08;;;;;;;28.70;20.07;;;6.80;42.80;;;;;;5038085;28;20213;-50
2023/04/09 04:47:34;;;;;;;28.95;20.60;;;6.90;42.60;;;;;;5038067;28;20887;-50
2023/04/09 04:50:00;;;;;;;26.73;19.87;;;6.80;42.40;;;;;;5037944;28;20174;-50
2023/04/09 04:52:26;;;;;;;27.33;19.50;;;6.80;42.60;;;;;;5037596;28;20797;-50
2023/04/09 04:54:52;;;;;;;28.57;21.07;;;6.80;42.80;;;;;;5038044;28;20915;-50
2023/04/09 04:57:17;;;;;;;28.20;20.50;;;6.90;43.00;;;;;;5035828;28;20409;-50
2023/04/09 04:59:43;;;;;;;28.30;19.23;;;6.90;43.00;;;;;;5034864;28;20506;-50
2023/04/09 05:02:09;;;;;;;28.70;18.87;;;6.90;43.10;;;;;;5034978;28;20452;-50
2023/04/09 05:04:35;;;;;;;26.20;18.70;;;7.00;43.00;;;;;;5034778;28;20596;-50
2023/04/09 05:07:01;;;;;;;26.43;19.83;;;7.00;43.10;;;;;;5034921;28;20205;-50
2023/04/09 05:09:26;;;;;;;32.20;19.90;;;7.00;43.00;;;;;;5034952;28;20748;-50
2023/04/09 05:11:52;;;;;;;31.33;22.50;;;7.10;43.00;;;;;;5016713;28;20444;-50
2023/04/09 05:14:20;;;;;;;27.83;19.33;;;7.20;43.00;;;;;;5034626;28;20205;-51
2023/04/09 05:16:46;;;;;;;29.85;21.35;;;7.20;43.00;;;;;;5034505;28;20658;-50
2023/04/09 05:19:11;;;;;;;27.53;21.67;;;7.20;43.10;;;;;;5034437;28;20178;-51
2023/04/09 05:21:37;;;;;;;31.20;22.07;;;7.30;43.30;;;;;;5034529;28;20461;-51
2023/04/09 05:24:03;;;;;;;36.37;24.70;;;7.30;43.40;;;;;;5034148;28;20637;-51
2023/04/09 05:26:29;;;;;;;31.80;22.75;;;7.40;43.30;;;;;;5034443;28;20409;-51
2023/04/09 05:28:55;;;;;;;40.03;22.67;;;7.40;43.30;;;;;;5034566;28;20178;-51
2023/04/09 05:31:21;;;;;;;35.70;23.57;;;7.50;43.30;;;;;;5034218;28;20424;-51
2023/04/09 05:33:46;;;;;;;38.93;26.30;;;7.60;43.30;;;;;;5033870;28;20201;-51
2023/04/09 05:36:16;;;;;;;33.30;23.00;;;7.60;43.30;;;;;;5034187;28;20177;-50
2023/04/09 05:38:43;;;;;;;37.17;23.60;;;7.70;43.40;;;;;;5034072;28;20478;-51
2023/04/09 05:41:09;;;;;;;35.55;25.90;;;7.80;43.40;;;;;;5034228;28;20299;-51
2023/04/09 05:43:35;;;;;;;33.57;25.40;;;8.00;43.50;;;;;;5034137;28;20178;-51
2023/04/09 05:46:01;;;;;;;33.55;24.98;;;8.10;43.40;;;;;;5034015;28;20997;-50
2023/04/09 05:48:26;;;;;;;38.70;26.07;;;8.30;43.40;;;;;;5033980;28;20175;-50
2023/04/09 05:50:52;;;;;;;37.10;25.40;;;8.40;43.40;;;;;;5033726;28;20244;-51
2023/04/09 05:53:19;;;;;;;34.97;25.10;;;8.50;43.40;;;;;;5033559;28;20275;-50
2023/04/09 05:55:45;;;;;;;30.88;22.63;;;8.60;43.30;;;;;;5033826;28;20405;-51
2023/04/09 05:58:12;;;;;;;33.05;23.98;;;8.80;44.00;;;;;;5033735;28;20185;-51
2023/04/09 06:00:37;;;;;;;35.83;25.88;;;8.90;43.40;;;;;;5033592;28;20196;-51
2023/04/09 06:03:04;;;;;;;30.00;22.33;;;9.00;43.30;;;;;;5033401;28;20215;-51
2023/04/09 06:05:30;;;;;;;36.97;25.00;;;9.00;43.10;;;;;;5033661;28;20199;-51
2023/04/09 06:07:56;;;;;;;36.65;24.95;;;9.10;43.10;;;;;;5033557;28;20178;-51
2023/04/09 06:10:21;;;;;;;34.73;26.40;;;9.30;43.10;;;;;;5033344;28;20166;-50
2023/04/09 06:12:47;;;;;;;32.43;26.17;;;9.30;42.80;;;;;;5033324;28;20183;-50
2023/04/09 06:15:13;;;;;;;32.10;22.70;;;9.30;42.50;;;;;;5033631;28;20411;-50
2023/04/09 06:17:39;;;;;;;33.80;26.83;;;9.30;42.60;;;;;;5033555;28;20226;-50
2023/04/09 06:20:05;;;;;;;33.00;25.97;;;9.40;42.70;;;;;;5033652;28;20176;-50
2023/04/09 06:22:31;;;;;;;37.13;24.30;;;9.40;42.60;;;;;;5032904;28;20910;-50
2023/04/09 06:24:57;;;;;;;33.50;25.07;;;9.50;42.60;;;;;;5033339;28;20174;-50
2023/04/09 06:27:22;;;;;;;31.27;23.67;;;9.60;42.30;;;;;;5033241;28;20407;-50
2023/04/09 06:29:48;;;;;;;30.07;23.27;;;9.50;42.30;;;;;;5033064;28;20176;-50
2023/04/09 06:32:14;;;;;;;30.73;22.40;;;9.60;42.20;;;;;;5032853;28;20198;-51
2023/04/09 06:34:40;;;;;;;29.17;22.57;;;9.60;42.20;;;;;;5033281;28;20174;-50
2023/04/09 06:37:05;;;;;;;32.50;23.47;;;9.60;42.10;;;;;;5033055;28;20172;-50
2023/04/09 06:39:32;;;;;;;31.00;23.40;;;9.70;42.30;;;;;;5032960;28;20199;-51
2023/04/09 06:41:58;;;;;;;34.58;26.70;;;9.70;42.20;;;;;;5032517;28;20212;-51
2023/04/09 06:44:23;;;;;;;35.00;23.87;;;9.80;42.10;;;;;;5032850;28;20176;-50
2023/04/09 06:46:50;;;;;;;29.83;22.70;;;10.00;42.10;;;;;;5032822;28;20945;-50
2023/04/09 06:49:16;;;;;;;33.78;24.70;;;10.10;42.10;;;;;;5032821;28;20158;-52
2023/04/09 06:51:41;;;;;;;33.67;25.13;;;10.10;42.00;;;;;;5032378;28;20274;-50
2023/04/09 06:54:07;;;;;;;34.00;23.90;;;10.30;42.00;;;;;;5032681;28;20416;-50
2023/04/09 06:56:33;;;;;;;32.57;25.03;;;10.40;41.70;;;;;;5032696;28;20584;-50
2023/04/09 06:58:59;;;;;;;33.97;24.52;;;10.40;41.30;;;;;;5046624;22;20273;-48
2023/04/09 07:01:25;;;;;;;31.50;22.73;;;10.40;41.30;;;;;;5032560;28;20582;-47
2023/04/09 07:03:51;;;;;;;30.53;24.00;;;10.60;41.40;;;;;;5032337;28;20173;-47
2023/04/09 07:06:17;;;;;;;33.80;23.77;;;10.70;41.50;;;;;;5032745;28;20887;-47
2023/04/09 07:08:43;;;;;;;33.72;25.13;;;10.80;41.20;;;;;;5032515;28;20424;-47
2023/04/09 07:11:08;;;;;;;32.70;26.07;;;11.00;41.30;;;;;;5032444;28;20582;-47
2023/04/09 07:13:34;;;;;;;38.03;26.50;;;11.10;41.00;;;;;;5032241;28;20171;-47
2023/04/09 07:16:00;;;;;;;33.47;26.10;;;11.20;40.70;;;;;;5032340;28;20884;-47
2023/04/09 07:18:26;;;;;;;35.07;25.17;;;11.20;40.30;;;;;;5032194;28;20185;-47
2023/04/09 07:20:52;;;;;;;35.83;27.00;;;11.30;40.60;;;;;;5031653;28;20204;-47
2023/04/09 07:23:18;;;;;;;36.45;27.00;;;11.40;40.30;;;;;;5032138;28;20502;-47
2023/04/09 07:25:44;;;;;;;32.47;26.77;;;11.50;40.70;;;;;;5032164;28;20170;-48
2023/04/09 07:28:10;;;;;;;36.00;27.47;;;11.60;40.50;;;;;;5032163;28;20190;-48
2023/04/09 07:30:36;;;;;;;38.17;26.67;;;11.80;40.90;;;;;;5032060;28;20688;-47
2023/04/09 07:33:02;;;;;;;36.55;26.52;;;11.90;40.20;;;;;;5031782;28;20192;-47
2023/04/09 07:35:28;;;;;;;42.00;29.70;;;12.10;40.20;;;;;;5031768;28;20277;-47
2023/04/09 07:37:53;;;;;;;35.67;28.97;;;12.20;39.50;;;;;;5031965;28;20425;-47
2023/04/09 07:40:19;;;;;;;37.63;27.30;;;12.40;39.00;;;;;;5031946;28;20166;-48
2023/04/09 07:42:45;;;;;;;35.30;26.33;;;12.40;38.80;;;;;;5031705;28;20201;-47
2023/04/09 07:45:11;;;;;;;35.70;25.60;;;12.50;38.80;;;;;;5031976;28;20168;-48
2023/04/09 07:47:40;;;;;;;35.13;26.80;;;12.60;39.10;;;;;;5031782;28;20170;-47
2023/04/09 07:50:06;;;;;;;38.00;26.77;;;12.80;38.60;;;;;;5032101;28;20748;-47
2023/04/09 07:52:32;;;;;;;37.88;27.27;;;13.00;39.00;;;;;;5031976;28;20352;-48
2023/04/09 07:54:58;;;;;;;36.33;26.07;;;13.30;39.10;;;;;;5031938;28;20172;-47
2023/04/09 07:57:23;;;;;;;29.63;25.70;;;13.50;39.10;;;;;;5031897;28;20669;-48
2023/04/09 07:59:49;;;;;;;29.87;24.30;;;13.80;38.70;;;;;;5031461;28;20620;-47
2023/04/09 08:02:16;;;;;;;32.72;25.73;;;14.00;38.60;;;;;;5031538;28;20220;-48
2023/04/09 08:04:42;;;;;;;30.73;25.80;;;14.20;37.70;;;;;;5031832;28;20220;-48
2023/04/09 08:07:08;;;;;;;35.13;25.37;;;14.40;37.40;;;;;;5031776;28;20557;-48
2023/04/09 08:09:33;;;;;;;32.50;23.67;;;14.50;37.10;;;;;;5031704;28;20248;-48
2023/04/09 08:11:59;;;;;;;33.30;24.77;;;14.70;36.60;;;;;;5031728;28;20174;-48
2023/04/09 08:14:25;;;;;;;29.40;23.50;;;14.70;35.70;;;;;;5031659;28;20174;-47
2023/04/09 08:16:51;;;;;;;32.90;25.50;;;14.70;34.50;;;;;;5031594;28;20174;-48
2023/04/09 08:19:18;;;;;;;34.37;25.07;;;14.70;35.60;;;;;;5031447;28;20269;-48
2023/04/09 08:21:47;;;;;;;33.80;26.05;;;14.70;35.00;;;;;;5031415;28;20186;-48
2023/04/09 08:24:13;;;;;;;29.02;23.73;;;14.60;35.20;;;;;;5031566;28;20273;-48
2023/04/09 08:26:40;;;;;;;29.37;23.93;;;14.50;34.30;;;;;;5031622;28;20201;-48
2023/04/09 08:29:06;;;;;;;29.63;23.75;;;14.50;35.50;;;;;;5031481;28;20474;-47
2023/04/09 08:31:32;;;;;;;33.95;26.45;;;14.50;36.00;;;;;;5031417;28;20630;-48
2023/04/09 08:33:58;;;;;;;31.52;23.70;;;14.70;36.00;;;;;;5034141;28;20185;-47
2023/04/09 08:36:25;;;;;;;28.70;24.60;;;14.90;36.70;;;;;;5035289;28;20186;-48
2023/04/09 08:38:51;;;;;;;34.72;26.25;;;15.20;36.60;;;;;;5035091;28;20653;-47
2023/04/09 08:41:25;;;;;;;34.22;28.58;;;15.40;34.90;;;;;;5034991;28;20189;-48
2023/04/09 08:43:51;;;;;;;37.15;27.63;;;15.40;33.30;;;;;;5034843;28;20162;-47
2023/04/09 08:46:21;;;;;;;31.20;25.77;;;15.30;33.80;;;;;;5035307;28;20270;-47
2023/04/09 08:48:49;;;;;;;31.90;24.08;;;15.30;33.30;;;;;;5034938;28;20216;-47
2023/04/09 08:51:15;;;;;;;33.65;27.25;;;15.30;33.20;;;;;;5034991;28;20517;-47
2023/04/09 08:54:01;;;;;;;29.77;25.30;;;15.30;34.40;;;;;;5034778;28;20205;-47
2023/04/09 08:56:27;;;;;;;33.25;24.67;;;15.30;34.10;;;;;;5034854;28;20174;-47
2023/04/09 08:58:54;;;;;;;33.50;25.60;;;15.20;32.60;;;;;;5034586;28;20432;-47
2023/04/09 09:01:30;;;;;;;27.58;24.58;;;15.20;33.90;;;;;;5034718;28;20228;-48
2023/04/09 09:03:56;;;;;;;30.05;25.02;;;15.50;35.30;;;;;;5034737;28;20283;-48
2023/04/09 09:06:28;;;;;;;30.27;25.37;;;15.70;35.00;;;;;;5034895;28;20678;-48
2023/04/09 09:09:09;;;;;;;34.00;27.60;;;16.00;35.00;;;;;;5034417;28;20281;-48
2023/04/09 09:11:36;;;;;;;33.40;26.38;;;16.20;32.60;;;;;;5034620;28;20169;-48
2023/04/09 09:14:13;;;;;;;29.05;24.25;;;16.10;30.60;;;;;;5034372;28;20353;-47
2023/04/09 09:16:43;;;;;;;35.88;26.17;;;15.90;31.80;;;;;;5034522;28;20162;-47
2023/04/09 09:19:29;;;;;;;31.92;26.40;;;15.80;32.30;;;;;;5034293;28;20196;-48
2023/04/09 09:21:58;;;;;;;34.47;25.48;;;15.80;31.60;;;;;;5034143;28;20673;-47
2023/04/09 09:24:24;;;;;;;33.33;26.52;;;15.70;32.40;;;;;;5034378;28;20565;-47
2023/04/09 09:26:51;;;;;;;29.53;23.93;;;16.00;32.80;;;;;;5034282;28;20166;-49
2023/04/09 09:29:16;;;;;;;27.98;24.52;;;16.20;32.40;;;;;;5034021;28;20198;-47
2023/04/09 09:31:49;;;;;;;28.93;24.77;;;16.40;32.10;;;;;;5033975;28;20268;-48
2023/04/09 09:34:16;;;;;;;30.92;24.85;;;16.60;31.80;;;;;;5034376;28;20174;-48
2023/04/09 09:36:43;;;;;;;32.05;27.10;;;16.90;33.40;;;;;;5034099;28;20184;-48
2023/04/09 09:39:11;;;;;;;29.23;25.50;;;17.30;33.90;;;;;;5034180;28;20198;-47
2023/04/09 09:41:37;;;;;;;28.70;24.33;;;17.60;32.90;;;;;;5034187;28;20293;-48
2023/04/09 09:44:05;;;;;;;32.42;27.88;;;17.70;31.20;;;;;;5033393;28;20167;-48
2023/04/09 09:46:37;;;;;;;31.85;25.80;;;17.60;30.40;;;;;;5034026;28;20186;-49
2023/04/09 09:49:03;;;;;;;31.85;26.50;;;17.50;31.70;;;;;;5034048;28;20232;-47
2023/04/09 09:51:30;;;;;;;30.13;23.30;;;17.70;32.00;;;;;;5033701;28;20181;-49
2023/04/09 09:53:56;;;;;;;29.55;25.00;;;17.70;31.30;;;;;;5033660;28;20174;-47
2023/04/09 09:56:31;;;;;;;29.15;25.50;;;18.00;32.00;;;;;;5033808;28;20186;-48
2023/04/09 09:59:23;;;;;;;27.27;24.15;;;18.20;30.80;;;;;;5033496;28;20209;-48
2023/04/09 10:02:03;;;;;;;25.73;22.98;;;18.40;30.90;;;;;;5033616;28;20202;-50
2023/04/09 10:04:33;;;;;;;35.30;27.58;;;18.40;30.70;;;;;;5033725;28;20158;-48
2023/04/09 10:07:03;;;;;;;32.05;26.55;;;18.40;29.00;;;;;;5033603;28;20634;-47
2023/04/09 10:09:31;;;;;;;30.80;26.90;;;18.40;29.80;;;;;;5033334;28;20194;-48
2023/04/09 10:11:59;;;;;;;31.02;27.15;;;18.50;30.10;;;;;;5033210;28;20170;-48
2023/04/09 10:14:27;;;;;;;30.73;24.60;;;18.50;30.50;;;;;;5033484;28;20174;-48
2023/04/09 10:16:53;;;;;;;28.83;25.73;;;18.60;29.80;;;;;;5033448;28;20190;-49
2023/04/09 10:19:21;;;;;;;29.37;25.73;;;18.60;29.80;;;;;;5033560;28;20273;-48
2023/04/09 10:21:52;;;;;;;34.25;27.65;;;18.70;29.50;;;;;;5033067;28;20197;-48
2023/04/09 10:24:18;;;;;;;30.52;25.70;;;18.70;28.50;;;;;;5033500;28;20185;-49
2023/04/09 10:26:44;;;;;;;32.67;28.67;;;18.40;29.20;;;;;;5033202;28;20162;-49
2023/04/09 10:29:17;;;;;;;31.00;26.42;;;18.40;30.50;;;;;;5033205;28;20194;-48
2023/04/09 10:31:52;;;;;;;27.23;24.27;;;18.50;28.40;;;;;;5032958;28;20218;-49
2023/04/09 10:34:25;;;;;;;27.80;24.83;;;18.40;29.80;;;;;;5033110;28;20529;-48
2023/04/09 10:36:55;;;;;;;25.77;22.27;;;18.50;30.80;;;;;;5033099;28;20189;-48
2023/04/09 10:39:24;;;;;;;26.75;23.88;;;18.60;30.60;;;;;;5032898;28;20566;-49
2023/04/09 10:41:51;;;;;;;33.33;22.33;;;18.70;30.00;;;;;;5032885;28;20224;-48
2023/04/09 10:44:30;;;;;;;26.30;21.42;;;18.60;28.90;;;;;;5033006;28;20245;-49
2023/04/09 10:46:56;;;;;;;24.95;21.95;;;18.50;29.30;;;;;;5032992;28;20173;-48
2023/04/09 10:49:26;;;;;;;25.80;23.02;;;18.50;30.30;;;;;;5033099;28;20413;-49
2023/04/09 10:52:03;;;;;;;26.45;23.27;;;18.50;30.40;;;;;;5032688;28;20529;-49
2023/04/09 10:54:34;;;;;;;26.98;24.08;;;18.50;30.60;;;;;;5032743;28;20170;-49
2023/04/09 10:57:06;;;;;;;25.88;23.13;;;18.50;30.20;;;;;;5032379;28;20185;-48
2023/04/09 10:59:37;;;;;;;25.98;23.25;;;18.60;30.80;;;;;;5032565;28;20201;-49
2023/04/09 11:02:08;;;;;;;28.52;24.77;;;18.70;30.50;;;;;;5032429;28;20202;-48
2023/04/09 11:05:07;;;;;;;26.95;24.02;;;18.70;30.80;;;;;;5032728;28;20235;-48
2023/04/09 11:07:39;;;;;;;30.00;26.90;;;18.80;31.10;;;;;;5032470;28;20653;-49
2023/04/09 11:10:05;;;;;;;29.00;25.83;;;18.90;31.10;;;;;;5032795;28;20249;-48
2023/04/09 11:12:32;;;;;;;26.88;23.98;;;19.00;30.60;;;;;;5032219;28;20682;-49
2023/04/09 11:14:57;;;;;;;27.08;23.45;;;19.10;31.30;;;;;;5032391;28;20184;-48
2023/04/09 11:17:23;;;;;;;27.43;24.40;;;19.30;30.90;;;;;;5032564;28;20530;-48
2023/04/09 11:19:49;;;;;;;30.20;25.47;;;19.40;30.30;;;;;;5032253;28;20198;-49
2023/04/09 11:22:15;;;;;;;32.07;26.43;;;19.50;29.60;;;;;;5032065;28;20189;-48
2023/04/09 11:24:49;;;;;;;25.55;22.83;;;19.50;30.00;;;;;;5032359;28;20663;-49
2023/04/09 11:27:18;;;;;;;29.75;24.77;;;19.60;30.50;;;;;;5032359;28;20188;-49
2023/04/09 11:29:44;;;;;;;26.92;24.13;;;19.70;30.60;;;;;;5032321;28;20194;-49
2023/04/09 11:32:11;;;;;;;28.50;24.83;;;19.90;29.80;;;;;;5031923;28;20243;-49
2023/04/09 11:34:37;;;;;;;25.25;22.52;;;19.90;29.70;;;;;;5032088;28;20173;-49
2023/04/09 11:37:07;;;;;;;26.17;23.47;;;20.00;30.10;;;;;;5032323;28;20268;-48
2023/04/09 11:39:36;;;;;;;22.98;20.58;;;20.10;30.00;;;;;;5031920;28;20208;-49
2023/04/09 11:42:02;;;;;;;26.73;23.48;;;20.20;29.30;;;;;;5031689;28;20260;-48
2023/04/09 11:44:29;;;;;;;25.17;22.43;;;20.20;28.70;;;;;;5032016;28;20652;-49
2023/04/09 11:46:56;;;;;;;25.63;22.15;;;20.20;29.00;;;;;;5031919;28;20489;-49
2023/04/09 11:49:22;;;;;;;23.88;20.25;;;20.20;28.90;;;;;;5031788;28;20661;-49
2023/04/09 11:51:48;;;;;;;26.35;23.52;;;20.30;29.20;;;;;;5031960;28;20181;-50
2023/04/09 11:54:14;;;;;;;25.08;21.67;;;20.30;28.40;;;;;;5031877;28;20565;-48
2023/04/09 11:56:40;;;;;;;23.20;20.90;;;20.30;26.80;;;;;;5032041;28;20173;-48
2023/04/09 11:59:05;;;;;;;25.17;21.60;;;20.30;29.10;;;;;;5031618;28;20256;-49
2023/04/09 12:01:32;;;;;;;24.37;21.70;;;20.30;28.10;;;;;;5031601;28;20178;-49
2023/04/09 12:03:59;;;;;;;24.60;22.10;;;20.40;29.10;;;;;;5031524;28;20216;-49
2023/04/09 12:06:25;;;;;;;24.73;21.70;;;20.60;29.40;;;;;;5032323;28;20630;-48
2023/04/09 12:08:58;;;;;;;24.63;21.88;;;20.80;29.00;;;;;;5035990;28;20201;-49
2023/04/09 12:11:31;;;;;;;25.48;22.90;;;21.10;29.50;;;;;;5035807;28;20174;-49
2023/04/09 12:14:16;;;;;;;23.08;20.77;;;21.30;28.30;;;;;;5035560;28;20196;-50
2023/04/09 12:16:43;;;;;;;22.30;19.92;;;21.50;28.40;;;;;;5035750;28;20216;-49
2023/04/09 12:19:12;;;;;;;23.33;20.93;;;21.60;28.10;;;;;;5035560;28;20186;-50
2023/04/09 12:21:48;;;;;;;20.20;18.10;;;21.80;25.00;;;;;;5035686;28;20455;-49
2023/04/09 12:24:18;;;;;;;21.25;19.15;;;21.80;26.00;;;;;;5035809;28;20174;-49
2023/04/09 12:26:45;;;;;;;20.65;18.63;;;21.70;26.10;;;;;;5035535;28;20170;-50
2023/04/09 12:29:16;;;;;;;17.30;15.55;;;21.70;26.50;;;;;;5035317;28;20205;-49
2023/04/09 12:31:43;;;;;;;19.50;16.27;;;21.60;25.10;;;;;;5035473;28;20200;-50
2023/04/09 12:34:09;;;;;;;19.83;17.83;;;21.50;24.80;;;;;;5035404;28;20173;-50
2023/04/09 12:36:35;;;;;;;22.90;20.20;;;21.50;26.10;;;;;;5035486;28;20181;-50